sensor_id;sensor_type;location;lat;lon;timestamp;pressure;altitude;pressure_sealevel;temperature;humidity
59443;BME280;45247;47.466;19.004;2022-10-23T00:01:25;100333.75;;;8.62;100.00
59443;BME280;45247;47.466;19.004;2022-10-23T00:03:56;100342.50;;;8.63;100.00
59443;BME280;45247;47.466;19.004;2022-10-23T00:06:24;100349.72;;;8.58;100.00
59443;BME280;45247;47.466;19.004;2022-10-23T00:08:54;100347.03;;;8.59;100.00
59443;BME280;45247;47.466;19.004;2022-10-23T00:11:28;100343.25;;;8.65;100.00
59443;BME280;45247;47.466;19.004;2022-10-23T00:13:59;100350.59;;;8.77;100.00
59443;BME280;45247;47.466;19.004;2022-10-23T00:16:29;100356.47;;;8.84;100.00
59443;BME280;45247;47.466;19.004;2022-10-23T00:18:57;100352.97;;;8.83;100.00
59443;BME280;45247;47.466;19.004;2022-10-23T00:21:26;100356.50;;;8.82;100.00
59443;BME280;45247;47.466;19.004;2022-10-23T00:23:54;100367.84;;;8.84;100.00
59443;BME280;45247;47.466;19.004;2022-10-23T00:26:22;100365.53;;;8.76;100.00
59443;BME280;45247;47.466;19.004;2022-10-23T00:28:52;100370.25;;;8.70;100.00
59443;BME280;45247;47.466;19.004;2022-10-23T00:31:20;100367.41;;;8.74;100.00
59443;BME280;45247;47.466;19.004;2022-10-23T00:33:51;100368.50;;;8.69;100.00
59443;BME280;45247;47.466;19.004;2022-10-23T00:36:20;100373.94;;;8.66;100.00
59443;BME280;45247;47.466;19.004;2022-10-23T00:38:49;100373.22;;;8.62;100.00
59443;BME280;45247;47.466;19.004;2022-10-23T00:41:19;100382.25;;;8.57;100.00
59443;BME280;45247;47.466;19.004;2022-10-23T00:43:56;100386.91;;;8.50;100.00
59443;BME280;45247;47.466;19.004;2022-10-23T00:46:25;100389.41;;;8.53;100.00
59443;BME280;45247;47.466;19.004;2022-10-23T00:48:55;100386.97;;;8.48;100.00
59443;BME280;45247;47.466;19.004;2022-10-23T00:51:25;100393.66;;;8.56;100.00
59443;BME280;45247;47.466;19.004;2022-10-23T00:53:57;100393.13;;;8.47;100.00
59443;BME280;45247;47.466;19.004;2022-10-23T00:56:46;100401.03;;;8.47;100.00
59443;BME280;45247;47.466;19.004;2022-10-23T00:59:14;100399.06;;;8.52;100.00
59443;BME280;45247;47.466;19.004;2022-10-23T01:01:42;100399.94;;;8.53;100.00
59443;BME280;45247;47.466;19.004;2022-10-23T01:04:12;100398.91;;;8.56;100.00
59443;BME280;45247;47.466;19.004;2022-10-23T01:06:45;100405.44;;;8.47;100.00
59443;BME280;45247;47.466;19.004;2022-10-23T01:09:19;100410.88;;;8.42;100.00
59443;BME280;45247;47.466;19.004;2022-10-23T01:11:56;100412.06;;;8.35;100.00
59443;BME280;45247;47.466;19.004;2022-10-23T01:14:28;100415.50;;;8.37;100.00
59443;BME280;45247;47.466;19.004;2022-10-23T01:17:03;100411.69;;;8.44;100.00
59443;BME280;45247;47.466;19.004;2022-10-23T01:19:45;100406.16;;;8.50;100.00
59443;BME280;45247;47.466;19.004;2022-10-23T01:22:31;100401.63;;;8.54;100.00
59443;BME280;45247;47.466;19.004;2022-10-23T01:25:13;100411.19;;;8.57;100.00
59443;BME280;45247;47.466;19.004;2022-10-23T01:27:51;100409.75;;;8.68;100.00
59443;BME280;45247;47.466;19.004;2022-10-23T01:30:22;100410.25;;;8.78;100.00
59443;BME280;45247;47.466;19.004;2022-10-23T01:32:53;100405.53;;;8.85;100.00
59443;BME280;45247;47.466;19.004;2022-10-23T01:35:26;100408.91;;;8.88;100.00
59443;BME280;45247;47.466;19.004;2022-10-23T01:37:57;100409.84;;;8.87;100.00
59443;BME280;45247;47.466;19.004;2022-10-23T01:40:31;100414.03;;;8.91;100.00
59443;BME280;45247;47.466;19.004;2022-10-23T01:43:05;100404.28;;;8.93;100.00
59443;BME280;45247;47.466;19.004;2022-10-23T01:45:38;100425.09;;;8.99;100.00
59443;BME280;45247;47.466;19.004;2022-10-23T01:48:10;100415.13;;;9.06;100.00
59443;BME280;45247;47.466;19.004;2022-10-23T01:50:40;100423.31;;;9.19;100.00
59443;BME280;45247;47.466;19.004;2022-10-23T01:53:09;100424.28;;;9.16;100.00
59443;BME280;45247;47.466;19.004;2022-10-23T01:55:39;100418.03;;;9.19;100.00
59443;BME280;45247;47.466;19.004;2022-10-23T01:58:10;100420.97;;;9.13;100.00
59443;BME280;45247;47.466;19.004;2022-10-23T02:00:40;100407.13;;;9.08;100.00
59443;BME280;45247;47.466;19.004;2022-10-23T02:03:12;100413.63;;;9.00;100.00
59443;BME280;45247;47.466;19.004;2022-10-23T02:05:43;100420.00;;;8.95;100.00
59443;BME280;45247;47.466;19.004;2022-10-23T02:08:11;100410.59;;;8.89;100.00
59443;BME280;45247;47.466;19.004;2022-10-23T02:10:45;100415.31;;;8.83;100.00
59443;BME280;45247;47.466;19.004;2022-10-23T02:13:23;100415.63;;;8.75;100.00
59443;BME280;45247;47.466;19.004;2022-10-23T02:16:00;100420.16;;;8.71;100.00
59443;BME280;45247;47.466;19.004;2022-10-23T02:18:34;100417.13;;;8.60;100.00
59443;BME280;45247;47.466;19.004;2022-10-23T02:21:08;100411.88;;;8.60;100.00
59443;BME280;45247;47.466;19.004;2022-10-23T02:23:40;100417.53;;;8.51;100.00
59443;BME280;45247;47.466;19.004;2022-10-23T02:26:20;100410.84;;;8.44;100.00
59443;BME280;45247;47.466;19.004;2022-10-23T02:28:53;100414.69;;;8.35;100.00
59443;BME280;45247;47.466;19.004;2022-10-23T02:31:22;100414.81;;;8.32;100.00
59443;BME280;45247;47.466;19.004;2022-10-23T02:33:51;100418.56;;;8.26;100.00
59443;BME280;45247;47.466;19.004;2022-10-23T02:36:19;100418.03;;;8.18;100.00
59443;BME280;45247;47.466;19.004;2022-10-23T02:38:47;100423.47;;;8.14;100.00
59443;BME280;45247;47.466;19.004;2022-10-23T02:41:26;100428.47;;;8.20;100.00
59443;BME280;45247;47.466;19.004;2022-10-23T02:44:12;100424.91;;;8.21;100.00
59443;BME280;45247;47.466;19.004;2022-10-23T02:46:49;100447.00;;;8.17;100.00
59443;BME280;45247;47.466;19.004;2022-10-23T02:49:24;100451.78;;;8.07;100.00
59443;BME280;45247;47.466;19.004;2022-10-23T02:52:02;100449.53;;;7.98;100.00
59443;BME280;45247;47.466;19.004;2022-10-23T02:54:42;100450.38;;;7.98;100.00
59443;BME280;45247;47.466;19.004;2022-10-23T02:57:19;100448.91;;;7.91;100.00
59443;BME280;45247;47.466;19.004;2022-10-23T03:00:00;100454.28;;;7.88;100.00
59443;BME280;45247;47.466;19.004;2022-10-23T03:02:33;100450.78;;;7.88;100.00
59443;BME280;45247;47.466;19.004;2022-10-23T03:05:05;100449.22;;;7.84;100.00
59443;BME280;45247;47.466;19.004;2022-10-23T03:07:36;100456.38;;;7.80;100.00
59443;BME280;45247;47.466;19.004;2022-10-23T03:10:07;100453.91;;;7.75;100.00
59443;BME280;45247;47.466;19.004;2022-10-23T03:12:36;100458.53;;;7.69;100.00
59443;BME280;45247;47.466;19.004;2022-10-23T03:15:06;100471.78;;;7.66;100.00
59443;BME280;45247;47.466;19.004;2022-10-23T03:17:35;100468.19;;;7.68;100.00
59443;BME280;45247;47.466;19.004;2022-10-23T03:20:04;100472.63;;;7.66;100.00
59443;BME280;45247;47.466;19.004;2022-10-23T03:22:32;100469.16;;;7.66;100.00
59443;BME280;45247;47.466;19.004;2022-10-23T03:25:00;100464.75;;;7.66;100.00
59443;BME280;45247;47.466;19.004;2022-10-23T03:27:28;100464.75;;;7.66;100.00
59443;BME280;45247;47.466;19.004;2022-10-23T03:29:56;100469.31;;;7.63;100.00
59443;BME280;45247;47.466;19.004;2022-10-23T03:32:26;100477.91;;;7.66;100.00
59443;BME280;45247;47.466;19.004;2022-10-23T03:34:53;100465.56;;;7.68;100.00
59443;BME280;45247;47.466;19.004;2022-10-23T03:37:21;100470.94;;;7.65;100.00
59443;BME280;45247;47.466;19.004;2022-10-23T03:39:49;100467.56;;;7.62;100.00
59443;BME280;45247;47.466;19.004;2022-10-23T03:42:18;100466.31;;;7.72;100.00
59443;BME280;45247;47.466;19.004;2022-10-23T03:44:46;100460.13;;;7.73;100.00
59443;BME280;45247;47.466;19.004;2022-10-23T03:47:14;100466.16;;;7.98;100.00
59443;BME280;45247;47.466;19.004;2022-10-23T03:49:43;100473.66;;;8.08;100.00
59443;BME280;45247;47.466;19.004;2022-10-23T03:52:11;100468.28;;;8.11;100.00
59443;BME280;45247;47.466;19.004;2022-10-23T03:54:39;100462.16;;;8.10;100.00
59443;BME280;45247;47.466;19.004;2022-10-23T03:57:07;100464.91;;;8.07;100.00
59443;BME280;45247;47.466;19.004;2022-10-23T03:59:35;100472.31;;;7.97;100.00
59443;BME280;45247;47.466;19.004;2022-10-23T04:02:03;100469.06;;;7.91;100.00
59443;BME280;45247;47.466;19.004;2022-10-23T04:04:32;100475.53;;;7.82;100.00
59443;BME280;45247;47.466;19.004;2022-10-23T04:07:01;100485.63;;;7.71;100.00
59443;BME280;45247;47.466;19.004;2022-10-23T04:09:29;100485.19;;;7.60;100.00
59443;BME280;45247;47.466;19.004;2022-10-23T04:11:57;100480.00;;;7.58;100.00
59443;BME280;45247;47.466;19.004;2022-10-23T04:14:25;100473.06;;;7.56;100.00
59443;BME280;45247;47.466;19.004;2022-10-23T04:16:53;100473.31;;;7.49;100.00
59443;BME280;45247;47.466;19.004;2022-10-23T04:19:21;100474.34;;;7.45;100.00
59443;BME280;45247;47.466;19.004;2022-10-23T04:21:52;100469.22;;;7.41;100.00
59443;BME280;45247;47.466;19.004;2022-10-23T04:24:21;100459.94;;;7.32;100.00
59443;BME280;45247;47.466;19.004;2022-10-23T04:26:52;100468.97;;;7.25;100.00
59443;BME280;45247;47.466;19.004;2022-10-23T04:29:20;100472.63;;;7.21;100.00
59443;BME280;45247;47.466;19.004;2022-10-23T04:31:50;100465.53;;;7.23;100.00
59443;BME280;45247;47.466;19.004;2022-10-23T04:34:18;100465.66;;;7.20;100.00
59443;BME280;45247;47.466;19.004;2022-10-23T04:36:46;100465.53;;;7.23;100.00
59443;BME280;45247;47.466;19.004;2022-10-23T04:39:14;100458.56;;;7.22;100.00
59443;BME280;45247;47.466;19.004;2022-10-23T04:41:43;100455.25;;;7.17;100.00
59443;BME280;45247;47.466;19.004;2022-10-23T04:44:11;100464.94;;;7.15;100.00
59443;BME280;45247;47.466;19.004;2022-10-23T04:46:39;100475.63;;;7.10;100.00
59443;BME280;45247;47.466;19.004;2022-10-23T04:49:07;100482.59;;;7.11;100.00
59443;BME280;45247;47.466;19.004;2022-10-23T04:51:36;100475.19;;;6.97;100.00
59443;BME280;45247;47.466;19.004;2022-10-23T04:54:04;100473.59;;;6.93;100.00
59443;BME280;45247;47.466;19.004;2022-10-23T04:56:32;100489.47;;;6.90;100.00
59443;BME280;45247;47.466;19.004;2022-10-23T04:59:01;100491.19;;;6.91;100.00
59443;BME280;45247;47.466;19.004;2022-10-23T05:01:31;100487.00;;;6.86;100.00
59443;BME280;45247;47.466;19.004;2022-10-23T05:03:59;100482.66;;;6.85;100.00
59443;BME280;45247;47.466;19.004;2022-10-23T05:06:27;100484.31;;;6.87;100.00
59443;BME280;45247;47.466;19.004;2022-10-23T05:08:55;100488.56;;;6.91;100.00
59443;BME280;45247;47.466;19.004;2022-10-23T05:11:23;100487.38;;;7.00;100.00
59443;BME280;45247;47.466;19.004;2022-10-23T05:13:51;100495.94;;;7.05;100.00
59443;BME280;45247;47.466;19.004;2022-10-23T05:16:27;100489.13;;;6.99;100.00
59443;BME280;45247;47.466;19.004;2022-10-23T05:18:59;100487.88;;;7.10;100.00
59443;BME280;45247;47.466;19.004;2022-10-23T05:21:29;100487.69;;;7.16;100.00
59443;BME280;45247;47.466;19.004;2022-10-23T05:23:59;100489.41;;;7.17;100.00
59443;BME280;45247;47.466;19.004;2022-10-23T05:26:28;100479.69;;;7.19;100.00
59443;BME280;45247;47.466;19.004;2022-10-23T05:28:56;100480.75;;;7.13;100.00
59443;BME280;45247;47.466;19.004;2022-10-23T05:31:25;100486.88;;;7.14;100.00
59443;BME280;45247;47.466;19.004;2022-10-23T05:33:54;100486.88;;;7.14;100.00
59443;BME280;45247;47.466;19.004;2022-10-23T05:36:23;100500.50;;;7.23;100.00
59443;BME280;45247;47.466;19.004;2022-10-23T05:38:52;100500.31;;;7.30;100.00
59443;BME280;45247;47.466;19.004;2022-10-23T05:41:20;100501.84;;;7.35;100.00
59443;BME280;45247;47.466;19.004;2022-10-23T05:43:48;100515.81;;;7.36;100.00
59443;BME280;45247;47.466;19.004;2022-10-23T05:46:16;100509.69;;;7.37;100.00
59443;BME280;45247;47.466;19.004;2022-10-23T05:48:48;100506.25;;;7.35;100.00
59443;BME280;45247;47.466;19.004;2022-10-23T05:51:16;100500.91;;;7.36;100.00
59443;BME280;45247;47.466;19.004;2022-10-23T05:53:48;100489.19;;;7.46;100.00
59443;BME280;45247;47.466;19.004;2022-10-23T05:56:16;100493.97;;;7.59;100.00
59443;BME280;45247;47.466;19.004;2022-10-23T05:58:45;100491.50;;;7.77;100.00
59443;BME280;45247;47.466;19.004;2022-10-23T06:01:13;100484.72;;;7.94;100.00
59443;BME280;45247;47.466;19.004;2022-10-23T06:03:43;100488.38;;;8.12;100.00
59443;BME280;45247;47.466;19.004;2022-10-23T06:06:13;100494.09;;;8.23;100.00
59443;BME280;45247;47.466;19.004;2022-10-23T06:08:41;100493.75;;;8.09;100.00
59443;BME280;45247;47.466;19.004;2022-10-23T06:11:10;100505.69;;;7.95;100.00
59443;BME280;45247;47.466;19.004;2022-10-23T06:13:41;100504.75;;;7.96;100.00
59443;BME280;45247;47.466;19.004;2022-10-23T06:16:09;100496.66;;;8.02;100.00
59443;BME280;45247;47.466;19.004;2022-10-23T06:18:37;100504.16;;;8.12;100.00
59443;BME280;45247;47.466;19.004;2022-10-23T06:21:06;100508.94;;;8.24;100.00
59443;BME280;45247;47.466;19.004;2022-10-23T06:23:36;100512.22;;;8.29;100.00
59443;BME280;45247;47.466;19.004;2022-10-23T06:26:06;100524.72;;;8.46;100.00
59443;BME280;45247;47.466;19.004;2022-10-23T06:28:35;100533.75;;;8.61;100.00
59443;BME280;45247;47.466;19.004;2022-10-23T06:31:04;100532.47;;;8.71;100.00
59443;BME280;45247;47.466;19.004;2022-10-23T06:33:32;100537.16;;;8.85;100.00
59443;BME280;45247;47.466;19.004;2022-10-23T06:36:00;100533.06;;;8.98;100.00
59443;BME280;45247;47.466;19.004;2022-10-23T06:38:29;100534.97;;;9.15;100.00
59443;BME280;45247;47.466;19.004;2022-10-23T06:41:04;100547.00;;;9.20;100.00
59443;BME280;45247;47.466;19.004;2022-10-23T06:43:32;100551.00;;;9.29;100.00
59443;BME280;45247;47.466;19.004;2022-10-23T06:46:01;100552.84;;;9.47;100.00
59443;BME280;45247;47.466;19.004;2022-10-23T06:48:30;100569.81;;;9.61;100.00
59443;BME280;45247;47.466;19.004;2022-10-23T06:50:58;100556.44;;;9.65;100.00
59443;BME280;45247;47.466;19.004;2022-10-23T06:53:30;100555.03;;;9.77;100.00
59443;BME280;45247;47.466;19.004;2022-10-23T06:55:59;100556.75;;;9.78;100.00
59443;BME280;45247;47.466;19.004;2022-10-23T06:58:28;100554.09;;;9.78;100.00
59443;BME280;45247;47.466;19.004;2022-10-23T07:00:59;100555.69;;;9.82;100.00
59443;BME280;45247;47.466;19.004;2022-10-23T07:03:27;100550.06;;;9.90;100.00
59443;BME280;45247;47.466;19.004;2022-10-23T07:05:59;100556.38;;;10.04;100.00
59443;BME280;45247;47.466;19.004;2022-10-23T07:08:27;100563.59;;;10.20;100.00
59443;BME280;45247;47.466;19.004;2022-10-23T07:10:55;100561.03;;;10.37;100.00
59443;BME280;45247;47.466;19.004;2022-10-23T07:13:23;100555.84;;;10.53;100.00
59443;BME280;45247;47.466;19.004;2022-10-23T07:15:53;100560.28;;;10.70;100.00
59443;BME280;45247;47.466;19.004;2022-10-23T07:18:21;100556.75;;;10.88;100.00
59443;BME280;45247;47.466;19.004;2022-10-23T07:20:56;100570.94;;;11.03;100.00
59443;BME280;45247;47.466;19.004;2022-10-23T07:23:24;100564.19;;;11.15;100.00
59443;BME280;45247;47.466;19.004;2022-10-23T07:25:52;100573.19;;;11.28;100.00
59443;BME280;45247;47.466;19.004;2022-10-23T07:28:20;100560.88;;;11.44;100.00
59443;BME280;45247;47.466;19.004;2022-10-23T07:30:56;100557.50;;;11.58;100.00
59443;BME280;45247;47.466;19.004;2022-10-23T07:33:24;100562.06;;;11.72;100.00
59443;BME280;45247;47.466;19.004;2022-10-23T07:35:52;100545.56;;;11.84;100.00
59443;BME280;45247;47.466;19.004;2022-10-23T07:38:20;100553.09;;;12.08;100.00
59443;BME280;45247;47.466;19.004;2022-10-23T07:40:48;100544.38;;;12.21;100.00
59443;BME280;45247;47.466;19.004;2022-10-23T07:43:16;100548.72;;;12.38;100.00
59443;BME280;45247;47.466;19.004;2022-10-23T07:45:47;100544.59;;;12.48;100.00
59443;BME280;45247;47.466;19.004;2022-10-23T07:48:16;100547.56;;;12.58;100.00
59443;BME280;45247;47.466;19.004;2022-10-23T07:50:45;100554.97;;;12.67;100.00
59443;BME280;45247;47.466;19.004;2022-10-23T07:53:16;100550.94;;;12.76;100.00
59443;BME280;45247;47.466;19.004;2022-10-23T07:55:50;100558.38;;;12.85;100.00
59443;BME280;45247;47.466;19.004;2022-10-23T07:58:19;100551.41;;;12.98;100.00
59443;BME280;45247;47.466;19.004;2022-10-23T08:00:53;100551.59;;;13.10;100.00
59443;BME280;45247;47.466;19.004;2022-10-23T08:03:23;100541.31;;;13.19;100.00
59443;BME280;45247;47.466;19.004;2022-10-23T08:05:52;100550.34;;;13.31;100.00
59443;BME280;45247;47.466;19.004;2022-10-23T08:08:20;100544.41;;;13.42;100.00
59443;BME280;45247;47.466;19.004;2022-10-23T08:10:49;100547.50;;;13.48;100.00
59443;BME280;45247;47.466;19.004;2022-10-23T08:13:18;100534.84;;;13.53;100.00
59443;BME280;45247;47.466;19.004;2022-10-23T08:15:48;100537.84;;;13.62;100.00
59443;BME280;45247;47.466;19.004;2022-10-23T08:18:19;100546.97;;;13.72;100.00
59443;BME280;45247;47.466;19.004;2022-10-23T08:20:49;100542.41;;;13.74;100.00
59443;BME280;45247;47.466;19.004;2022-10-23T08:23:20;100541.81;;;13.83;100.00
59443;BME280;45247;47.466;19.004;2022-10-23T08:25:48;100551.88;;;13.92;100.00
59443;BME280;45247;47.466;19.004;2022-10-23T08:28:17;100544.28;;;14.00;100.00
59443;BME280;45247;47.466;19.004;2022-10-23T08:30:47;100547.09;;;14.12;100.00
59443;BME280;45247;47.466;19.004;2022-10-23T08:33:15;100540.44;;;14.19;100.00
59443;BME280;45247;47.466;19.004;2022-10-23T08:35:43;100545.97;;;14.01;100.00
59443;BME280;45247;47.466;19.004;2022-10-23T08:38:13;100544.84;;;13.91;100.00
59443;BME280;45247;47.466;19.004;2022-10-23T08:40:43;100553.38;;;13.96;100.00
59443;BME280;45247;47.466;19.004;2022-10-23T08:43:18;100556.38;;;14.04;100.00
59443;BME280;45247;47.466;19.004;2022-10-23T08:45:49;100554.34;;;13.81;100.00
59443;BME280;45247;47.466;19.004;2022-10-23T08:48:25;100554.91;;;13.72;100.00
59443;BME280;45247;47.466;19.004;2022-10-23T08:50:57;100554.44;;;13.65;100.00
59443;BME280;45247;47.466;19.004;2022-10-23T08:53:30;100540.88;;;13.70;100.00
59443;BME280;45247;47.466;19.004;2022-10-23T08:56:01;100550.00;;;13.80;100.00
59443;BME280;45247;47.466;19.004;2022-10-23T08:58:35;100548.53;;;13.74;100.00
59443;BME280;45247;47.466;19.004;2022-10-23T09:01:23;100543.91;;;13.78;100.00
59443;BME280;45247;47.466;19.004;2022-10-23T09:03:56;100546.19;;;13.70;100.00
59443;BME280;45247;47.466;19.004;2022-10-23T09:06:34;100543.09;;;13.49;100.00
59443;BME280;45247;47.466;19.004;2022-10-23T09:11:59;100546.41;;;13.67;100.00
59443;BME280;45247;47.466;19.004;2022-10-23T09:14:54;100543.63;;;13.83;100.00
59443;BME280;45247;47.466;19.004;2022-10-23T09:17:27;100546.47;;;13.94;100.00
59443;BME280;45247;47.466;19.004;2022-10-23T09:20:06;100549.19;;;14.07;100.00
59443;BME280;45247;47.466;19.004;2022-10-23T09:22:37;100555.66;;;14.29;100.00
59443;BME280;45247;47.466;19.004;2022-10-23T09:25:10;100554.22;;;14.38;100.00
59443;BME280;45247;47.466;19.004;2022-10-23T09:27:39;100555.06;;;14.39;100.00
59443;BME280;45247;47.466;19.004;2022-10-23T09:30:29;100561.56;;;14.62;100.00
59443;BME280;45247;47.466;19.004;2022-10-23T09:33:00;100567.88;;;14.73;100.00
59443;BME280;45247;47.466;19.004;2022-10-23T09:35:51;100573.09;;;14.75;100.00
59443;BME280;45247;47.466;19.004;2022-10-23T09:38:28;100568.00;;;14.85;100.00
59443;BME280;45247;47.466;19.004;2022-10-23T09:41:00;100560.50;;;14.91;100.00
59443;BME280;45247;47.466;19.004;2022-10-23T09:46:15;100559.13;;;15.24;100.00
59443;BME280;45247;47.466;19.004;2022-10-23T09:48:43;100561.72;;;15.38;100.00
59443;BME280;45247;47.466;19.004;2022-10-23T09:51:16;100563.53;;;15.50;100.00
59443;BME280;45247;47.466;19.004;2022-10-23T09:53:49;100562.59;;;15.64;100.00
59443;BME280;45247;47.466;19.004;2022-10-23T09:56:27;100559.91;;;15.77;100.00
59443;BME280;45247;47.466;19.004;2022-10-23T09:58:58;100563.44;;;15.65;100.00
59443;BME280;45247;47.466;19.004;2022-10-23T10:01:28;100555.31;;;15.79;100.00
59443;BME280;45247;47.466;19.004;2022-10-23T10:03:58;100552.63;;;15.92;100.00
59443;BME280;45247;47.466;19.004;2022-10-23T10:06:28;100546.78;;;15.99;100.00
59443;BME280;45247;47.466;19.004;2022-10-23T10:08:58;100550.16;;;16.01;100.00
59443;BME280;45247;47.466;19.004;2022-10-23T10:11:36;100545.03;;;16.11;100.00
59443;BME280;45247;47.466;19.004;2022-10-23T10:14:35;100537.16;;;16.10;100.00
59443;BME280;45247;47.466;19.004;2022-10-23T10:17:13;100538.56;;;16.02;100.00
59443;BME280;45247;47.466;19.004;2022-10-23T10:19:59;100542.25;;;16.13;100.00
59443;BME280;45247;47.466;19.004;2022-10-23T10:22:38;100539.56;;;16.25;100.00
59443;BME280;45247;47.466;19.004;2022-10-23T10:25:11;100536.22;;;16.35;100.00
59443;BME280;45247;47.466;19.004;2022-10-23T10:27:53;100519.84;;;16.28;100.00
59443;BME280;45247;47.466;19.004;2022-10-23T10:30:31;100530.38;;;16.30;100.00
59443;BME280;45247;47.466;19.004;2022-10-23T10:33:08;100522.03;;;16.34;100.00
59443;BME280;45247;47.466;19.004;2022-10-23T10:35:49;100524.53;;;16.24;100.00
59443;BME280;45247;47.466;19.004;2022-10-23T10:38:33;100526.19;;;16.38;100.00
59443;BME280;45247;47.466;19.004;2022-10-23T10:41:25;100519.44;;;16.45;100.00
59443;BME280;45247;47.466;19.004;2022-10-23T10:44:09;100513.63;;;16.40;100.00
59443;BME280;45247;47.466;19.004;2022-10-23T10:46:45;100511.53;;;16.33;100.00
59443;BME280;45247;47.466;19.004;2022-10-23T10:49:19;100515.03;;;16.33;100.00
59443;BME280;45247;47.466;19.004;2022-10-23T10:51:55;100503.19;;;16.37;100.00
59443;BME280;45247;47.466;19.004;2022-10-23T10:54:39;100504.56;;;16.19;100.00
59443;BME280;45247;47.466;19.004;2022-10-23T10:57:15;100498.09;;;16.10;100.00
59443;BME280;45247;47.466;19.004;2022-10-23T10:59:50;100504.97;;;16.13;100.00
59443;BME280;45247;47.466;19.004;2022-10-23T11:02:25;100494.50;;;15.98;100.00
59443;BME280;45247;47.466;19.004;2022-10-23T11:05:01;100487.38;;;15.99;100.00
59443;BME280;45247;47.466;19.004;2022-10-23T11:07:36;100478.81;;;16.07;100.00
59443;BME280;45247;47.466;19.004;2022-10-23T11:10:14;100476.59;;;16.00;100.00
59443;BME280;45247;47.466;19.004;2022-10-23T11:12:44;100475.88;;;15.98;100.00
59443;BME280;45247;47.466;19.004;2022-10-23T11:15:16;100474.38;;;15.94;100.00
59443;BME280;45247;47.466;19.004;2022-10-23T11:17:47;100475.44;;;15.92;100.00
59443;BME280;45247;47.466;19.004;2022-10-23T11:20:37;100480.84;;;15.66;100.00
59443;BME280;45247;47.466;19.004;2022-10-23T11:23:45;100481.88;;;15.89;100.00
59443;BME280;45247;47.466;19.004;2022-10-23T11:26:25;100482.66;;;15.66;100.00
59443;BME280;45247;47.466;19.004;2022-10-23T11:29:18;100475.97;;;15.47;100.00
59443;BME280;45247;47.466;19.004;2022-10-23T11:32:08;100479.03;;;15.54;100.00
59443;BME280;45247;47.466;19.004;2022-10-23T11:35:03;100476.78;;;15.73;100.00
59443;BME280;45247;47.466;19.004;2022-10-23T11:37:37;100469.53;;;15.75;100.00
59443;BME280;45247;47.466;19.004;2022-10-23T11:40:19;100466.31;;;15.83;100.00
59443;BME280;45247;47.466;19.004;2022-10-23T11:42:49;100464.38;;;15.98;100.00
59443;BME280;45247;47.466;19.004;2022-10-23T11:45:32;100474.22;;;16.09;100.00
59443;BME280;45247;47.466;19.004;2022-10-23T11:48:03;100477.78;;;15.96;100.00
59443;BME280;45247;47.466;19.004;2022-10-23T11:50:36;100472.09;;;15.77;100.00
59443;BME280;45247;47.466;19.004;2022-10-23T11:53:24;100467.22;;;15.71;100.00
59443;BME280;45247;47.466;19.004;2022-10-23T11:55:59;100469.44;;;15.77;100.00
59443;BME280;45247;47.466;19.004;2022-10-23T11:58:38;100458.69;;;15.78;100.00
59443;BME280;45247;47.466;19.004;2022-10-23T12:01:21;100457.91;;;15.89;100.00
59443;BME280;45247;47.466;19.004;2022-10-23T12:03:55;100447.88;;;15.93;100.00
59443;BME280;45247;47.466;19.004;2022-10-23T12:06:27;100445.75;;;15.98;100.00
59443;BME280;45247;47.466;19.004;2022-10-23T12:08:58;100451.22;;;16.08;100.00
59443;BME280;45247;47.466;19.004;2022-10-23T12:11:43;100445.16;;;16.06;100.00
59443;BME280;45247;47.466;19.004;2022-10-23T12:14:27;100433.31;;;16.10;100.00
59443;BME280;45247;47.466;19.004;2022-10-23T12:16:55;100436.72;;;16.12;100.00
59443;BME280;45247;47.466;19.004;2022-10-23T12:19:26;100437.38;;;16.26;100.00
59443;BME280;45247;47.466;19.004;2022-10-23T12:21:57;100424.59;;;16.32;100.00
59443;BME280;45247;47.466;19.004;2022-10-23T12:24:54;100425.31;;;16.34;100.00
59443;BME280;45247;47.466;19.004;2022-10-23T12:27:29;100423.56;;;16.21;100.00
59443;BME280;45247;47.466;19.004;2022-10-23T12:30:10;100420.34;;;16.29;100.00
59443;BME280;45247;47.466;19.004;2022-10-23T12:33:13;100422.44;;;16.37;100.00
59443;BME280;45247;47.466;19.004;2022-10-23T12:36:05;100418.41;;;16.31;100.00
59443;BME280;45247;47.466;19.004;2022-10-23T12:38:43;100409.91;;;16.26;100.00
59443;BME280;45247;47.466;19.004;2022-10-23T12:41:14;100407.94;;;16.17;100.00
59443;BME280;45247;47.466;19.004;2022-10-23T12:43:44;100409.91;;;16.26;100.00
59443;BME280;45247;47.466;19.004;2022-10-23T12:46:31;100412.00;;;16.34;100.00
59443;BME280;45247;47.466;19.004;2022-10-23T12:49:01;100411.44;;;16.41;100.00
59443;BME280;45247;47.466;19.004;2022-10-23T12:51:33;100404.91;;;16.57;100.00
59443;BME280;45247;47.466;19.004;2022-10-23T12:54:02;100394.78;;;16.62;100.00
59443;BME280;45247;47.466;19.004;2022-10-23T12:56:34;100397.19;;;16.53;100.00
59443;BME280;45247;47.466;19.004;2022-10-23T12:59:08;100395.38;;;16.54;100.00
59443;BME280;45247;47.466;19.004;2022-10-23T13:01:38;100393.91;;;16.61;100.00
59443;BME280;45247;47.466;19.004;2022-10-23T13:04:15;100401.53;;;16.55;100.00
59443;BME280;45247;47.466;19.004;2022-10-23T13:06:51;100393.53;;;16.55;100.00
59443;BME280;45247;47.466;19.004;2022-10-23T13:09:23;100392.06;;;16.50;100.00